Costa Mediterranea — IBCF — position and weather

sailwx.info

Track history (hours):
 
Tides and Currents Weather Stations Pressure Air Temp Water Temp Dewpoint Dewpoint Depression Visibility Wind Speed Wind Dir Waves Ship Positions

Costa Mediterranea

Last reported at 2019-May-20 15:47 UTC. Time now 2019-May-20 16:42 UTC.
Position N 56°00' W 003°11'.

Length 293 m; draft 8 m.

Type: Passenger vessel. MMSI: 247088200.

Date/timePositionNaut miles runAvg speedWind from/ knotsBaromVisibWave heightAir tempDewpointWater temp
2019-May-20 15:47N 56°00' W 003°11'0 0.0
2019-May-20 15:30N 56°00' W 003°11'0 0.0
2019-May-20 15:00N 56°00' W 003°11'0 0.0
2019-May-20 14:26N 56°00' W 003°11'0 0.0
2019-May-20 13:59N 56°00' W 003°11'0 0.0
2019-May-20 13:30N 56°00' W 003°11'0 0.0
2019-May-20 13:00N 56°00' W 003°11'0 0.0
2019-May-20 12:30N 56°00' W 003°11'0 0.0
2019-May-20 12:00N 56°00' W 003°11'0 0.0
2019-May-20 11:30N 56°00' W 003°11'0 0.0
2019-May-20 11:00N 56°00' W 003°11'0 0.2
2019-May-20 10:30N 56°00' W 003°11'0 0.0
2019-May-20 09:57N 56°00' W 003°11'0 0.0
2019-May-20 09:25N 56°00' W 003°11'0 0.0
2019-May-20 08:30N 56°00' W 003°11'2 0.8
2019-May-20 06:01N 56°01' W 003°07'0 7.7
2019-May-20 06:00N 56°01' W 003°07'611.7
2019-May-20 05:30N 56°04' W 002°58'510.6
2019-May-20 05:00N 56°06' W 002°50'713.7
2019-May-20 04:31N 56°09' W 002°38'714.0
2019-May-20 04:00N 56°10' W 002°26'714.3
2019-May-20 03:30N 56°13' W 002°14'714.2
2019-May-20 02:59N 56°16' W 002°02'814.9
2019-May-20 02:28N 56°24' W 001°58'2915.4
2019-May-20 00:33N 56°52' W 001°44'214.9
2019-May-20 00:24N 56°54' W 001°43'615.5
2019-May-20 00:00N 56°60' W 001°40'915.2
2019-May-19 23:27N 57°08' W 001°34'715.3
2019-May-19 23:00N 57°15' W 001°32'915.6
2019-May-19 22:25N 57°24' W 001°32'716.2
2019-May-19 22:01N 57°30' W 001°33'816.0
2019-May-19 21:30N 57°38' W 001°36'4615.2
2019-May-19 18:29N 58°18' W 002°21'715.0
2019-May-19 18:00N 58°23' W 002°29'714.8
2019-May-19 17:30N 58°29' W 002°37'714.9
2019-May-19 17:00N 58°34' W 002°48'815.5
2019-May-19 16:30N 58°40' W 002°58'713.5
2019-May-19 16:00N 58°44' W 003°09'612.2
2019-May-19 15:30N 58°45' W 003°21'714.5
2019-May-19 15:00N 58°46' W 003°34'816.3
2019-May-19 14:30N 58°48' W 003°50'815.0
2019-May-19 14:00N 58°48' W 004°04'713.9
2019-May-19 13:30N 58°49' W 004°17'714.0
2019-May-19 13:00N 58°48' W 004°31'714.3
2019-May-19 12:30N 58°50' W 004°44'3713.9
2019-May-19 09:51N 58°21' W 005°29'1515.2
2019-May-19 08:50N 58°08' W 005°44'514.9
2019-May-19 08:30N 58°04' W 005°49'13112.8
2019-May-18 22:17N 56°01' W 007°09'414.3
2019-May-18 21:59N 55°59' W 007°02'4115.4
2019-May-18 19:21N 56°15' W 005°55'515.3
2019-May-18 19:00N 56°18' W 005°46'815.6
2019-May-18 18:30N 56°24' W 005°37'4 8.6
2019-May-18 17:59N 56°26' W 005°30'0 0.1
2019-May-18 17:29N 56°26' W 005°30'0 0.0
2019-May-18 16:59N 56°26' W 005°30'0 0.0
2019-May-18 16:20N 56°26' W 005°30'0 0.0
2019-May-18 15:59N 56°26' W 005°30'112.7
2019-May-18 15:56N 56°25' W 005°29'0 2.2
2019-May-18 15:48N 56°26' W 005°30'0 3.4
2019-May-18 15:40N 56°26' W 005°30'0 0.3
2019-May-18 15:23N 56°26' W 005°30'0 0.0
2019-May-18 14:59N 56°26' W 005°30'0 0.3
2019-May-18 14:40N 56°26' W 005°30'0 0.0
2019-May-18 14:37N 56°26' W 005°30'0 0.7
2019-May-18 14:29N 56°26' W 005°30'0 0.5
2019-May-18 14:22N 56°26' W 005°30'0 0.2
2019-May-18 13:56N 56°26' W 005°30'0 0.1
2019-May-18 13:29N 56°26' W 005°30'0 0.2
2019-May-18 13:09N 56°26' W 005°30'0 0.4
2019-May-18 12:59N 56°26' W 005°30'0 0.0
2019-May-18 12:26N 56°26' W 005°30'0 0.0
2019-May-18 11:56N 56°26' W 005°30'0 0.1
2019-May-18 11:30N 56°26' W 005°30'0 0.0
2019-May-18 11:01N 56°26' W 005°30'0 0.0
2019-May-18 10:30N 56°26' W 005°30'0 0.0
2019-May-18 10:00N 56°26' W 005°30'0 0.0
2019-May-18 09:30N 56°26' W 005°30'0 0.4
2019-May-18 09:15N 56°26' W 005°30'0 0.4
2019-May-18 09:00N 56°26' W 005°30'0 0.1
2019-May-18 08:30N 56°26' W 005°30'0 0.1
2019-May-18 08:01N 56°26' W 005°30'1 2.2
2019-May-18 07:47N 56°26' W 005°30'1 1.9
2019-May-18 07:31N 56°26' W 005°30'0 0.0
2019-May-18 07:00N 56°26' W 005°30'0 0.1
2019-May-18 06:30N 56°26' W 005°30'0 2.6
2019-May-18 06:21N 56°26' W 005°30'1 1.8
2019-May-18 06:00N 56°26' W 005°31'510.4
2019-May-18 05:31N 56°23' W 005°39'713.6
2019-May-18 05:01N 56°18' W 005°47'714.1
2019-May-18 04:29N 56°14' W 005°58'814.3
2019-May-18 03:54N 56°10' W 006°11'2915.5
2019-May-18 02:00N 55°56' W 006°57'914.0
2019-May-18 01:23N 55°47' W 007°00'615.4
2019-May-18 01:00N 55°41' W 006°59'714.7
2019-May-18 00:30N 55°35' W 006°53'1019.2
2019-May-18 00:00N 55°27' W 006°43'1121.1
2019-May-17 23:30N 55°27' W 006°24'1020.8
2019-May-17 23:00N 55°26' W 006°06'1019.4
2019-May-17 22:30N 55°18' W 005°55'1019.0
2019-May-17 22:00N 55°10' W 005°47'918.3
2019-May-17 21:30N 55°03' W 005°38'816.6
2019-May-17 21:00N 54°55' W 005°33'815.7
2019-May-17 20:30N 54°47' W 005°35'713.8
2019-May-17 20:00N 54°42' W 005°43'710.3
2019-May-17 19:18N 54°38' W 005°53'1 2.0
2019-May-17 18:55N 54°37' W 005°54'0 0.2
2019-May-17 18:29N 54°37' W 005°54'0 0.0
2019-May-17 17:59N 54°37' W 005°54'0 0.0
2019-May-17 17:29N 54°37' W 005°54'0 0.0
2019-May-17 16:59N 54°37' W 005°54'0 0.0
2019-May-17 16:29N 54°37' W 005°54'0 0.0
2019-May-17 15:59N 54°37' W 005°54'0 0.0
2019-May-17 15:29N 54°37' W 005°54'0 0.0
2019-May-17 14:59N 54°37' W 005°54'0 0.0
2019-May-17 14:29N 54°37' W 005°54'0 0.0
2019-May-17 13:59N 54°37' W 005°54'0 0.0
2019-May-17 13:29N 54°37' W 005°54'0 0.0
2019-May-17 12:59N 54°37' W 005°54'0 0.0
2019-May-17 12:29N 54°37' W 005°54'0 0.0
2019-May-17 12:00N 54°37' W 005°54'0 0.0
2019-May-17 11:30N 54°37' W 005°54'0 0.0
2019-May-17 11:00N 54°37' W 005°54'0 0.0
2019-May-17 10:30N 54°37' W 005°54'0 0.3
2019-May-17 10:23N 54°37' W 005°54'0 0.1
2019-May-17 10:00N 54°37' W 005°54'0 0.0
2019-May-17 09:30N 54°37' W 005°54'0 0.0
2019-May-17 09:00N 54°37' W 005°54'0 0.0
2019-May-17 08:30N 54°37' W 005°54'0 0.0
2019-May-17 08:00N 54°37' W 005°54'1 2.6
2019-May-17 07:30N 54°38' W 005°53'612.2
2019-May-17 07:01N 54°42' W 005°45'612.6
2019-May-17 06:30N 54°43' W 005°34'917.4
2019-May-17 06:00N 54°38' W 005°22'1121.3
2019-May-17 05:30N 54°28' W 005°17'1121.8
2019-May-17 05:00N 54°17' W 005°15'1122.5
2019-May-17 04:31N 54°06' W 005°16'1123.0
2019-May-17 04:01N 53°55' W 005°16'1325.5
2019-May-17 03:30N 53°41' W 005°16'1122.5
2019-May-17 03:00N 53°30' W 005°16'918.5
2019-May-17 02:30N 53°22' W 005°20'1121.2
2019-May-17 02:00N 53°12' W 005°26'1020.7
2019-May-17 01:30N 53°02' W 005°30'1020.5
2019-May-17 01:00N 52°52' W 005°35'1019.9
2019-May-17 00:30N 52°42' W 005°40'1121.2
2019-May-17 00:00N 52°32' W 005°45'1020.0
2019-May-16 23:30N 52°22' W 005°50'1020.1
2019-May-16 23:00N 52°13' W 005°56'1019.9
2019-May-16 22:30N 52°05' W 006°05'1021.1
2019-May-16 22:00N 51°59' W 006°19'1121.5
2019-May-16 21:30N 51°53' W 006°34'1121.5
2019-May-16 21:00N 51°48' W 006°48'715.0
2019-May-16 20:30N 51°45' W 006°60'612.4
2019-May-16 20:00N 51°48' W 007°08'917.7
2019-May-16 19:30N 51°47' W 007°22'1121.8
2019-May-16 19:00N 51°45' W 007°40'1121.7
2019-May-16 18:30N 51°45' W 007°57'1019.7
2019-May-16 18:01N 51°45' W 008°13'611.2
2019-May-16 17:30N 51°51' W 008°16'3 5.0
2019-May-16 17:00N 51°50' W 008°20'0 0.0
2019-May-16 16:30N 51°50' W 008°20'0 0.0
2019-May-16 16:00N 51°50' W 008°20'0 0.0
2019-May-16 15:30N 51°50' W 008°20'0 0.0
2019-May-16 15:00N 51°50' W 008°20'0 0.0
2019-May-16 14:27N 51°50' W 008°20'0 0.0
2019-May-16 14:00N 51°50' W 008°20'0 0.0
2019-May-16 13:30N 51°50' W 008°20'0 0.0
2019-May-16 13:00N 51°50' W 008°20'0 0.0
2019-May-16 12:30N 51°50' W 008°20'0 0.0
2019-May-16 12:00N 51°50' W 008°20'0 0.0
2019-May-16 11:30N 51°50' W 008°20'0 0.0
2019-May-16 11:00N 51°50' W 008°20'0 0.0
2019-May-16 10:30N 51°50' W 008°20'0 0.0
2019-May-16 10:00N 51°50' W 008°20'0 0.0
2019-May-16 09:30N 51°50' W 008°20'0 0.0
2019-May-16 09:00N 51°50' W 008°20'0 0.0
2019-May-16 08:30N 51°50' W 008°20'0 0.0
2019-May-16 08:00N 51°50' W 008°20'0 0.0
2019-May-16 07:30N 51°50' W 008°20'0 0.0
2019-May-16 07:00N 51°50' W 008°20'0 0.0
2019-May-16 06:30N 51°50' W 008°20'0 0.8
2019-May-16 06:00N 51°50' W 008°19'3 5.4
2019-May-16 05:30N 51°48' W 008°16'611.7
2019-May-16 05:00N 51°43' W 008°13'816.7
2019-May-16 04:30N 51°43' W 007°60'917.6
2019-May-16 04:00N 51°44' W 007°46'917.7
2019-May-16 03:30N 51°45' W 007°32'918.1
2019-May-16 03:00N 51°48' W 007°17'917.8
2019-May-16 02:30N 51°51' W 007°04'918.6
2019-May-16 02:00N 51°54' W 006°50'1019.8
2019-May-16 01:29N 51°59' W 006°35'1020.3
2019-May-16 01:00N 52°04' W 006°22'1121.4
2019-May-16 00:30N 52°11' W 006°08'1121.8
2019-May-16 00:00N 52°20' W 005°59'1122.0
2019-May-15 23:30N 52°30' W 005°50'1624.1
2019-May-15 22:50N 52°43' W 005°36'923.4
2019-May-15 22:29N 52°51' W 005°29'1123.6
2019-May-15 22:00N 53°01' W 005°20'4021.9
2019-May-15 20:10N 53°33' W 004°41'421.1
2019-May-15 20:00N 53°34' W 004°35'1020.6
2019-May-15 19:31N 53°34' W 004°18'1020.5
2019-May-15 19:01N 53°34' W 004°01'1020.2
2019-May-15 18:30N 53°34' W 003°44'1020.0
2019-May-15 18:00N 53°33' W 003°27'714.7
2019-May-15 17:30N 53°31' W 003°15'612.6
2019-May-15 17:00N 53°29' W 003°05'510.7
2019-May-15 16:30N 53°25' W 003°00'0 0.2
2019-May-15 16:00N 53°25' W 003°00'0 0.0
2019-May-15 15:30N 53°25' W 003°00'0 0.0
2019-May-15 15:00N 53°25' W 003°00'0 0.0
2019-May-15 14:30N 53°25' W 003°00'0 0.0
2019-May-15 14:00N 53°25' W 003°00'0 0.0
2019-May-15 13:30N 53°25' W 003°00'0 0.0
2019-May-15 13:00N 53°25' W 003°00'0 0.0
2019-May-15 12:30N 53°25' W 003°00'0 0.0
2019-May-15 12:00N 53°25' W 003°00'0 0.0
2019-May-15 11:30N 53°25' W 003°00'0 0.0
2019-May-15 11:00N 53°25' W 003°00'0 0.0
2019-May-15 10:30N 53°25' W 003°00'0 0.0
2019-May-15 10:00N 53°25' W 003°00'0 0.0
2019-May-15 09:30N 53°25' W 003°00'0 0.0
2019-May-15 09:00N 53°25' W 003°00'0 0.0
2019-May-15 08:30N 53°25' W 003°00'0 0.0
2019-May-15 08:00N 53°25' W 003°00'0 0.0
2019-May-15 07:30N 53°25' W 003°00'0 0.0
2019-May-15 07:00N 53°25' W 003°00'0 0.2
2019-May-15 06:30N 53°24' W 003°00'2 4.9
2019-May-15 06:00N 53°27' W 003°02'713.9
2019-May-15 05:30N 53°32' W 003°10'713.6
2019-May-15 05:00N 53°32' W 003°21'3 6.7
2019-May-15 04:30N 53°31' W 003°27'510.5
2019-May-15 04:00N 53°31' W 003°35'510.9
2019-May-15 03:30N 53°32' W 003°45'510.6
2019-May-15 03:00N 53°34' W 003°52'611.3
2019-May-15 02:30N 53°37' W 004°01'611.8
2019-May-15 02:00N 53°39' W 004°10'611.6
2019-May-15 01:28N 53°40' W 004°20'611.8
2019-May-15 00:55N 53°40' W 004°31'511.6
2019-May-15 00:30N 53°40' W 004°39'611.9
2019-May-14 23:59N 53°40' W 004°50'1811.3
2019-May-14 22:27N 53°40' W 005°19'511.9
2019-May-14 21:59N 53°40' W 005°28'3011.1
2019-May-14 19:18N 53°20' W 006°06'0 0.0
2019-May-14 05:35N 53°20' W 006°06'4 7.3
2019-May-14 04:59N 53°21' W 005°59'714.4
2019-May-14 04:30N 53°17' W 005°49'815.3
2019-May-14 04:01N 53°12' W 005°41'917.4
2019-May-14 03:30N 53°03' W 005°35'917.8
2019-May-14 03:00N 52°54' W 005°37'917.4
2019-May-14 02:30N 52°46' W 005°38'917.0
2019-May-14 02:00N 52°37' W 005°39'918.6
2019-May-14 01:30N 52°28' W 005°41'918.0
2019-May-14 01:00N 52°19' W 005°43'918.4
2019-May-14 00:30N 52°10' W 005°45'1218.0
2019-May-13 23:49N 51°57' W 005°45'2217.4
2019-May-13 22:34N 51°36' W 005°51'117.5
2019-May-13 22:30N 51°35' W 005°51'917.3
2019-May-13 22:00N 51°26' W 005°52'1317.3
2019-May-13 21:16N 51°14' W 005°52'1217.6
2019-May-13 20:35N 51°02' W 005°52'217.8
2019-May-13 20:30N 51°00' W 005°52'3017.7
2019-May-13 18:48N 50°30' W 005°53'618.2
2019-May-13 18:30N 50°25' W 005°53'5314.4
2019-May-13 14:49N 49°43' W 005°01'618.0
2019-May-13 14:28N 49°45' W 004°52'918.2
2019-May-13 13:58N 49°47' W 004°38'1218.1
2019-May-13 13:19N 49°49' W 004°20'717.9
2019-May-13 12:55N 49°51' W 004°10'717.8
2019-May-13 12:30N 49°53' W 003°58'917.8
2019-May-13 12:00N 49°54' W 003°45'917.4
2019-May-13 11:30N 49°55' W 003°32'917.5
2019-May-13 11:00N 49°57' W 003°18'917.2
2019-May-13 10:30N 49°58' W 003°05'917.4
2019-May-13 10:01N 50°00' W 002°52'917.3
2019-May-13 09:29N 50°03' W 002°38'817.5
2019-May-13 09:00N 50°05' W 002°26'1117.6
2019-May-13 08:24N 50°08' W 002°10'718.2
2019-May-13 08:00N 50°10' W 001°59'1418.2
2019-May-13 07:15N 50°14' W 001°38'617.8
2019-May-13 06:55N 50°16' W 001°30'8217.6
2019-May-13 02:17N 50°38' E 000°34'517.9
2019-May-13 02:00N 50°41' E 000°40'918.4
2019-May-13 01:30N 50°46' E 000°52'1019.4
2019-May-13 01:00N 50°51' E 001°05'1020.2
2019-May-13 00:30N 50°59' E 001°16'1020.2
2019-May-13 00:01N 51°05' E 001°29'1020.0
2019-May-12 23:30N 51°10' E 001°42'918.0
2019-May-12 23:00N 51°18' E 001°51'917.4
2019-May-12 22:30N 51°26' E 001°54'917.7
2019-May-12 22:01N 51°33' E 002°03'917.9
2019-May-12 21:30N 51°39' E 002°13'917.7
2019-May-12 20:59N 51°46' E 002°22'817.3
2019-May-12 20:30N 51°53' E 002°31'1117.1
2019-May-12 19:51N 52°01' E 002°43'1317.2
2019-May-12 19:06N 52°10' E 002°58'317.6
2019-May-12 18:57N 52°12' E 003°01'817.3
2019-May-12 18:30N 52°16' E 003°12'917.1
2019-May-12 18:00N 52°21' E 003°23'917.3
2019-May-12 17:30N 52°25' E 003°36'917.3
2019-May-12 17:00N 52°29' E 003°48'917.4
2019-May-12 16:30N 52°31' E 004°02'917.7
2019-May-12 16:00N 52°31' E 004°16'714.6
2019-May-12 15:30N 52°29' E 004°28'4 7.8
2019-May-12 15:01N 52°28' E 004°34'0 0.0
2019-May-12 14:29N 52°28' E 004°34'0 0.0
2019-May-12 13:59N 52°28' E 004°34'0 0.0
2019-May-12 13:29N 52°28' E 004°34'0 0.0
2019-May-12 12:59N 52°28' E 004°34'0 0.0
2019-May-12 12:29N 52°28' E 004°34'0 0.0
2019-May-12 11:59N 52°28' E 004°34'0 0.0
2019-May-12 11:29N 52°28' E 004°34'0 0.0
2019-May-12 10:59N 52°28' E 004°34'0 0.0
2019-May-12 10:29N 52°28' E 004°34'0 0.0
2019-May-12 09:59N 52°28' E 004°34'0 0.0
2019-May-12 09:29N 52°28' E 004°34'0 0.0
2019-May-12 08:59N 52°28' E 004°34'0 0.0
2019-May-12 08:29N 52°28' E 004°34'0 0.0
2019-May-12 07:59N 52°28' E 004°34'0 0.0
2019-May-12 07:29N 52°28' E 004°34'0 0.0
2019-May-12 06:59N 52°28' E 004°34'0 0.0
2019-May-12 06:29N 52°28' E 004°34'0 0.0
2019-May-12 05:59N 52°28' E 004°34'0 0.0
2019-May-12 05:29N 52°28' E 004°34'1 1.2
2019-May-12 05:01N 52°28' E 004°33'612.6
2019-May-12 04:30N 52°29' E 004°23'612.0
2019-May-12 04:00N 52°29' E 004°13'815.7
2019-May-12 03:30N 52°35' E 004°05'815.8
2019-May-12 03:00N 52°42' E 004°00'1616.0
2019-May-12 02:02N 52°58' E 004°02'118.4
2019-May-12 02:00N 52°58' E 004°02'918.4
2019-May-12 01:30N 53°04' E 004°14'918.4
2019-May-12 01:00N 53°11' E 004°24'918.6
2019-May-12 00:30N 53°20' E 004°29'1516.6
2019-May-11 23:38N 53°30' E 004°46'3417.4
2019-May-11 21:42N 53°41' E 005°39'7319.1
2019-May-11 17:53N 53°59' E 007°39'817.6
2019-May-11 17:27N 53°53' E 007°47'714.8
2019-May-11 17:00N 53°52' E 007°58'918.1
2019-May-11 16:30N 53°46' E 008°10'917.8
2019-May-11 16:00N 53°41' E 008°22'714.7
2019-May-11 15:30N 53°36' E 008°31'3 4.7
2019-May-11 14:58N 53°33' E 008°33'0 0.0
2019-May-11 14:28N 53°33' E 008°33'0 0.0
2019-May-11 13:58N 53°33' E 008°33'0 0.0
2019-May-11 13:28N 53°33' E 008°33'0 0.0
2019-May-11 12:58N 53°33' E 008°33'0 0.0
2019-May-11 12:28N 53°33' E 008°33'0 0.0
2019-May-11 11:58N 53°33' E 008°33'0 0.0
2019-May-11 11:28N 53°33' E 008°33'0 0.0
2019-May-11 10:58N 53°34' E 008°33'0 0.0
2019-May-11 10:28N 53°33' E 008°33'0 0.0
2019-May-11 09:58N 53°33' E 008°33'0 0.0
2019-May-11 09:28N 53°33' E 008°33'0 0.0
2019-May-11 08:58N 53°33' E 008°33'0 0.0
2019-May-11 08:28N 53°33' E 008°33'0 0.0
2019-May-11 07:58N 53°33' E 008°33'0 0.0
2019-May-11 07:28N 53°33' E 008°33'0 0.0
2019-May-11 06:58N 53°33' E 008°33'0 0.0
2019-May-11 06:28N 53°33' E 008°33'0 0.0
2019-May-11 05:58N 53°33' E 008°33'0 0.0
2019-May-11 05:28N 53°33' E 008°33'0 0.0
2019-May-11 04:58N 53°33' E 008°33'1 3.0
2019-May-11 04:30N 53°35' E 008°32'510.4
2019-May-11 04:01N 53°38' E 008°26'815.5
2019-May-11 03:30N 53°43' E 008°16'815.7
2019-May-11 03:01N 53°49' E 008°07'714.7
2019-May-11 02:30N 53°52' E 007°55'612.8
2019-May-11 02:00N 53°53' E 007°44'  
Track history (hours):
 
Tides and Currents Weather Stations Pressure Air Temp Water Temp Dewpoint Dewpoint Depression Visibility Wind Speed Wind Dir Waves Ship Positions

Costa Mediterranea

Last reported at 2019-May-20 15:47 UTC. Time now 2019-May-20 16:42 UTC.
Position N 56°00' W 003°11'.

Length 293 m; draft 8 m.

Type: Passenger vessel. MMSI: 247088200.

Date/timePositionNaut miles runAvg speedWind from/ knotsBaromVisibWave heightAir tempDewpointWater temp
2019-May-20 15:47N 56°00' W 003°11'0 0.0
2019-May-20 15:30N 56°00' W 003°11'0 0.0
2019-May-20 15:00N 56°00' W 003°11'0 0.0
2019-May-20 14:26N 56°00' W 003°11'0 0.0
2019-May-20 13:59N 56°00' W 003°11'0 0.0
2019-May-20 13:30N 56°00' W 003°11'0 0.0
2019-May-20 13:00N 56°00' W 003°11'0 0.0
2019-May-20 12:30N 56°00' W 003°11'0 0.0
2019-May-20 12:00N 56°00' W 003°11'0 0.0
2019-May-20 11:30N 56°00' W 003°11'0 0.0
2019-May-20 11:00N 56°00' W 003°11'0 0.2
2019-May-20 10:30N 56°00' W 003°11'0 0.0
2019-May-20 09:57N 56°00' W 003°11'0 0.0
2019-May-20 09:25N 56°00' W 003°11'0 0.0
2019-May-20 08:30N 56°00' W 003°11'2 0.8
2019-May-20 06:01N 56°01' W 003°07'0 7.7
2019-May-20 06:00N 56°01' W 003°07'611.7
2019-May-20 05:30N 56°04' W 002°58'510.6
2019-May-20 05:00N 56°06' W 002°50'713.7
2019-May-20 04:31N 56°09' W 002°38'714.0
2019-May-20 04:00N 56°10' W 002°26'714.3
2019-May-20 03:30N 56°13' W 002°14'714.2
2019-May-20 02:59N 56°16' W 002°02'814.9
2019-May-20 02:28N 56°24' W 001°58'2915.4
2019-May-20 00:33N 56°52' W 001°44'214.9
2019-May-20 00:24N 56°54' W 001°43'615.5
2019-May-20 00:00N 56°60' W 001°40'915.2
2019-May-19 23:27N 57°08' W 001°34'715.3
2019-May-19 23:00N 57°15' W 001°32'915.6
2019-May-19 22:25N 57°24' W 001°32'716.2
2019-May-19 22:01N 57°30' W 001°33'816.0
2019-May-19 21:30N 57°38' W 001°36'4615.2
2019-May-19 18:29N 58°18' W 002°21'715.0
2019-May-19 18:00N 58°23' W 002°29'714.8
2019-May-19 17:30N 58°29' W 002°37'714.9
2019-May-19 17:00N 58°34' W 002°48'815.5
2019-May-19 16:30N 58°40' W 002°58'713.5
2019-May-19 16:00N 58°44' W 003°09'612.2
2019-May-19 15:30N 58°45' W 003°21'714.5
2019-May-19 15:00N 58°46' W 003°34'816.3
2019-May-19 14:30N 58°48' W 003°50'815.0
2019-May-19 14:00N 58°48' W 004°04'713.9
2019-May-19 13:30N 58°49' W 004°17'714.0
2019-May-19 13:00N 58°48' W 004°31'714.3
2019-May-19 12:30N 58°50' W 004°44'3713.9
2019-May-19 09:51N 58°21' W 005°29'1515.2
2019-May-19 08:50N 58°08' W 005°44'514.9
2019-May-19 08:30N 58°04' W 005°49'13112.8
2019-May-18 22:17N 56°01' W 007°09'414.3
2019-May-18 21:59N 55°59' W 007°02'4115.4
2019-May-18 19:21N 56°15' W 005°55'515.3
2019-May-18 19:00N 56°18' W 005°46'815.6
2019-May-18 18:30N 56°24' W 005°37'4 8.6
2019-May-18 17:59N 56°26' W 005°30'0 0.1
2019-May-18 17:29N 56°26' W 005°30'0 0.0
2019-May-18 16:59N 56°26' W 005°30'0 0.0
2019-May-18 16:20N 56°26' W 005°30'0 0.0
2019-May-18 15:59N 56°26' W 005°30'112.7
2019-May-18 15:56N 56°25' W 005°29'0 2.2
2019-May-18 15:48N 56°26' W 005°30'0 3.4
2019-May-18 15:40N 56°26' W 005°30'0 0.3
2019-May-18 15:23N 56°26' W 005°30'0 0.0
2019-May-18 14:59N 56°26' W 005°30'0 0.3
2019-May-18 14:40N 56°26' W 005°30'0 0.0
2019-May-18 14:37N 56°26' W 005°30'0 0.7
2019-May-18 14:29N 56°26' W 005°30'0 0.5
2019-May-18 14:22N 56°26' W 005°30'0 0.2
2019-May-18 13:56N 56°26' W 005°30'0 0.1
2019-May-18 13:29N 56°26' W 005°30'0 0.2
2019-May-18 13:09N 56°26' W 005°30'0 0.4
2019-May-18 12:59N 56°26' W 005°30'0 0.0
2019-May-18 12:26N 56°26' W 005°30'0 0.0
2019-May-18 11:56N 56°26' W 005°30'0 0.1
2019-May-18 11:30N 56°26' W 005°30'0 0.0
2019-May-18 11:01N 56°26' W 005°30'0 0.0
2019-May-18 10:30N 56°26' W 005°30'0 0.0
2019-May-18 10:00N 56°26' W 005°30'0 0.0
2019-May-18 09:30N 56°26' W 005°30'0 0.4
2019-May-18 09:15N 56°26' W 005°30'0 0.4
2019-May-18 09:00N 56°26' W 005°30'0 0.1
2019-May-18 08:30N 56°26' W 005°30'0 0.1
2019-May-18 08:01N 56°26' W 005°30'1 2.2
2019-May-18 07:47N 56°26' W 005°30'1 1.9
2019-May-18 07:31N 56°26' W 005°30'0 0.0
2019-May-18 07:00N 56°26' W 005°30'0 0.1
2019-May-18 06:30N 56°26' W 005°30'0 2.6
2019-May-18 06:21N 56°26' W 005°30'1 1.8
2019-May-18 06:00N 56°26' W 005°31'510.4
2019-May-18 05:31N 56°23' W 005°39'713.6
2019-May-18 05:01N 56°18' W 005°47'714.1
2019-May-18 04:29N 56°14' W 005°58'814.3
2019-May-18 03:54N 56°10' W 006°11'2915.5
2019-May-18 02:00N 55°56' W 006°57'914.0
2019-May-18 01:23N 55°47' W 007°00'615.4
2019-May-18 01:00N 55°41' W 006°59'714.7
2019-May-18 00:30N 55°35' W 006°53'1019.2
2019-May-18 00:00N 55°27' W 006°43'1121.1
2019-May-17 23:30N 55°27' W 006°24'1020.8
2019-May-17 23:00N 55°26' W 006°06'1019.4
2019-May-17 22:30N 55°18' W 005°55'1019.0
2019-May-17 22:00N 55°10' W 005°47'918.3
2019-May-17 21:30N 55°03' W 005°38'816.6
2019-May-17 21:00N 54°55' W 005°33'815.7
2019-May-17 20:30N 54°47' W 005°35'713.8
2019-May-17 20:00N 54°42' W 005°43'710.3
2019-May-17 19:18N 54°38' W 005°53'1 2.0
2019-May-17 18:55N 54°37' W 005°54'0 0.2
2019-May-17 18:29N 54°37' W 005°54'0 0.0
2019-May-17 17:59N 54°37' W 005°54'0 0.0
2019-May-17 17:29N 54°37' W 005°54'0 0.0
2019-May-17 16:59N 54°37' W 005°54'0 0.0
2019-May-17 16:29N 54°37' W 005°54'0 0.0
2019-May-17 15:59N 54°37' W 005°54'0 0.0
2019-May-17 15:29N 54°37' W 005°54'0 0.0
2019-May-17 14:59N 54°37' W 005°54'0 0.0
2019-May-17 14:29N 54°37' W 005°54'0 0.0
2019-May-17 13:59N 54°37' W 005°54'0 0.0
2019-May-17 13:29N 54°37' W 005°54'0 0.0
2019-May-17 12:59N 54°37' W 005°54'0 0.0
2019-May-17 12:29N 54°37' W 005°54'0 0.0
2019-May-17 12:00N 54°37' W 005°54'0 0.0
2019-May-17 11:30N 54°37' W 005°54'0 0.0
2019-May-17 11:00N 54°37' W 005°54'0 0.0
2019-May-17 10:30N 54°37' W 005°54'0 0.3
2019-May-17 10:23N 54°37' W 005°54'0 0.1
2019-May-17 10:00N 54°37' W 005°54'0 0.0
2019-May-17 09:30N 54°37' W 005°54'0 0.0
2019-May-17 09:00N 54°37' W 005°54'0 0.0
2019-May-17 08:30N 54°37' W 005°54'0 0.0
2019-May-17 08:00N 54°37' W 005°54'1 2.6
2019-May-17 07:30N 54°38' W 005°53'612.2
2019-May-17 07:01N 54°42' W 005°45'612.6
2019-May-17 06:30N 54°43' W 005°34'917.4
2019-May-17 06:00N 54°38' W 005°22'1121.3
2019-May-17 05:30N 54°28' W 005°17'1121.8
2019-May-17 05:00N 54°17' W 005°15'1122.5
2019-May-17 04:31N 54°06' W 005°16'1123.0
2019-May-17 04:01N 53°55' W 005°16'1325.5
2019-May-17 03:30N 53°41' W 005°16'1122.5
2019-May-17 03:00N 53°30' W 005°16'918.5
2019-May-17 02:30N 53°22' W 005°20'1121.2
2019-May-17 02:00N 53°12' W 005°26'1020.7
2019-May-17 01:30N 53°02' W 005°30'1020.5
2019-May-17 01:00N 52°52' W 005°35'1019.9
2019-May-17 00:30N 52°42' W 005°40'1121.2
2019-May-17 00:00N 52°32' W 005°45'1020.0
2019-May-16 23:30N 52°22' W 005°50'1020.1
2019-May-16 23:00N 52°13' W 005°56'1019.9
2019-May-16 22:30N 52°05' W 006°05'1021.1
2019-May-16 22:00N 51°59' W 006°19'1121.5
2019-May-16 21:30N 51°53' W 006°34'1121.5
2019-May-16 21:00N 51°48' W 006°48'715.0
2019-May-16 20:30N 51°45' W 006°60'612.4
2019-May-16 20:00N 51°48' W 007°08'917.7
2019-May-16 19:30N 51°47' W 007°22'1121.8
2019-May-16 19:00N 51°45' W 007°40'1121.7
2019-May-16 18:30N 51°45' W 007°57'1019.7
2019-May-16 18:01N 51°45' W 008°13'611.2
2019-May-16 17:30N 51°51' W 008°16'3 5.0
2019-May-16 17:00N 51°50' W 008°20'0 0.0
2019-May-16 16:30N 51°50' W 008°20'0 0.0
2019-May-16 16:00N 51°50' W 008°20'0 0.0
2019-May-16 15:30N 51°50' W 008°20'0 0.0
2019-May-16 15:00N 51°50' W 008°20'0 0.0
2019-May-16 14:27N 51°50' W 008°20'0 0.0
2019-May-16 14:00N 51°50' W 008°20'0 0.0
2019-May-16 13:30N 51°50' W 008°20'0 0.0
2019-May-16 13:00N 51°50' W 008°20'0 0.0
2019-May-16 12:30N 51°50' W 008°20'0 0.0
2019-May-16 12:00N 51°50' W 008°20'0 0.0
2019-May-16 11:30N 51°50' W 008°20'0 0.0
2019-May-16 11:00N 51°50' W 008°20'0 0.0
2019-May-16 10:30N 51°50' W 008°20'0 0.0
2019-May-16 10:00N 51°50' W 008°20'0 0.0
2019-May-16 09:30N 51°50' W 008°20'0 0.0
2019-May-16 09:00N 51°50' W 008°20'0 0.0
2019-May-16 08:30N 51°50' W 008°20'0 0.0
2019-May-16 08:00N 51°50' W 008°20'0 0.0
2019-May-16 07:30N 51°50' W 008°20'0 0.0
2019-May-16 07:00N 51°50' W 008°20'0 0.0
2019-May-16 06:30N 51°50' W 008°20'0 0.8
2019-May-16 06:00N 51°50' W 008°19'3 5.4
2019-May-16 05:30N 51°48' W 008°16'611.7
2019-May-16 05:00N 51°43' W 008°13'816.7
2019-May-16 04:30N 51°43' W 007°60'917.6
2019-May-16 04:00N 51°44' W 007°46'917.7
2019-May-16 03:30N 51°45' W 007°32'918.1
2019-May-16 03:00N 51°48' W 007°17'917.8
2019-May-16 02:30N 51°51' W 007°04'918.6
2019-May-16 02:00N 51°54' W 006°50'1019.8
2019-May-16 01:29N 51°59' W 006°35'1020.3
2019-May-16 01:00N 52°04' W 006°22'1121.4
2019-May-16 00:30N 52°11' W 006°08'1121.8
2019-May-16 00:00N 52°20' W 005°59'1122.0
2019-May-15 23:30N 52°30' W 005°50'1624.1
2019-May-15 22:50N 52°43' W 005°36'923.4
2019-May-15 22:29N 52°51' W 005°29'1123.6
2019-May-15 22:00N 53°01' W 005°20'4021.9
2019-May-15 20:10N 53°33' W 004°41'421.1
2019-May-15 20:00N 53°34' W 004°35'1020.6
2019-May-15 19:31N 53°34' W 004°18'1020.5
2019-May-15 19:01N 53°34' W 004°01'1020.2
2019-May-15 18:30N 53°34' W 003°44'1020.0
2019-May-15 18:00N 53°33' W 003°27'714.7
2019-May-15 17:30N 53°31' W 003°15'612.6
2019-May-15 17:00N 53°29' W 003°05'510.7
2019-May-15 16:30N 53°25' W 003°00'0 0.2
2019-May-15 16:00N 53°25' W 003°00'0 0.0
2019-May-15 15:30N 53°25' W 003°00'0 0.0
2019-May-15 15:00N 53°25' W 003°00'0 0.0
2019-May-15 14:30N 53°25' W 003°00'0 0.0
2019-May-15 14:00N 53°25' W 003°00'0 0.0
2019-May-15 13:30N 53°25' W 003°00'0 0.0
2019-May-15 13:00N 53°25' W 003°00'0 0.0
2019-May-15 12:30N 53°25' W 003°00'0 0.0
2019-May-15 12:00N 53°25' W 003°00'0 0.0
2019-May-15 11:30N 53°25' W 003°00'0 0.0
2019-May-15 11:00N 53°25' W 003°00'0 0.0
2019-May-15 10:30N 53°25' W 003°00'0 0.0
2019-May-15 10:00N 53°25' W 003°00'0 0.0
2019-May-15 09:30N 53°25' W 003°00'0 0.0
2019-May-15 09:00N 53°25' W 003°00'0 0.0
2019-May-15 08:30N 53°25' W 003°00'0 0.0
2019-May-15 08:00N 53°25' W 003°00'0 0.0
2019-May-15 07:30N 53°25' W 003°00'0 0.0
2019-May-15 07:00N 53°25' W 003°00'0 0.2
2019-May-15 06:30N 53°24' W 003°00'2 4.9
2019-May-15 06:00N 53°27' W 003°02'713.9
2019-May-15 05:30N 53°32' W 003°10'713.6
2019-May-15 05:00N 53°32' W 003°21'3 6.7
2019-May-15 04:30N 53°31' W 003°27'510.5
2019-May-15 04:00N 53°31' W 003°35'510.9
2019-May-15 03:30N 53°32' W 003°45'510.6
2019-May-15 03:00N 53°34' W 003°52'611.3
2019-May-15 02:30N 53°37' W 004°01'611.8
2019-May-15 02:00N 53°39' W 004°10'611.6
2019-May-15 01:28N 53°40' W 004°20'611.8
2019-May-15 00:55N 53°40' W 004°31'511.6
2019-May-15 00:30N 53°40' W 004°39'611.9
2019-May-14 23:59N 53°40' W 004°50'1811.3
2019-May-14 22:27N 53°40' W 005°19'511.9
2019-May-14 21:59N 53°40' W 005°28'3011.1
2019-May-14 19:18N 53°20' W 006°06'0 0.0
2019-May-14 05:35N 53°20' W 006°06'4 7.3
2019-May-14 04:59N 53°21' W 005°59'714.4
2019-May-14 04:30N 53°17' W 005°49'815.3
2019-May-14 04:01N 53°12' W 005°41'917.4
2019-May-14 03:30N 53°03' W 005°35'917.8
2019-May-14 03:00N 52°54' W 005°37'917.4
2019-May-14 02:30N 52°46' W 005°38'917.0
2019-May-14 02:00N 52°37' W 005°39'918.6
2019-May-14 01:30N 52°28' W 005°41'918.0
2019-May-14 01:00N 52°19' W 005°43'918.4
2019-May-14 00:30N 52°10' W 005°45'1218.0
2019-May-13 23:49N 51°57' W 005°45'2217.4
2019-May-13 22:34N 51°36' W 005°51'117.5
2019-May-13 22:30N 51°35' W 005°51'917.3
2019-May-13 22:00N 51°26' W 005°52'1317.3
2019-May-13 21:16N 51°14' W 005°52'1217.6
2019-May-13 20:35N 51°02' W 005°52'217.8
2019-May-13 20:30N 51°00' W 005°52'3017.7
2019-May-13 18:48N 50°30' W 005°53'618.2
2019-May-13 18:30N 50°25' W 005°53'5314.4
2019-May-13 14:49N 49°43' W 005°01'618.0
2019-May-13 14:28N 49°45' W 004°52'918.2
2019-May-13 13:58N 49°47' W 004°38'1218.1
2019-May-13 13:19N 49°49' W 004°20'717.9
2019-May-13 12:55N 49°51' W 004°10'717.8
2019-May-13 12:30N 49°53' W 003°58'917.8
2019-May-13 12:00N 49°54' W 003°45'917.4
2019-May-13 11:30N 49°55' W 003°32'917.5
2019-May-13 11:00N 49°57' W 003°18'917.2
2019-May-13 10:30N 49°58' W 003°05'917.4
2019-May-13 10:01N 50°00' W 002°52'917.3
2019-May-13 09:29N 50°03' W 002°38'817.5
2019-May-13 09:00N 50°05' W 002°26'1117.6
2019-May-13 08:24N 50°08' W 002°10'718.2
2019-May-13 08:00N 50°10' W 001°59'1418.2
2019-May-13 07:15N 50°14' W 001°38'617.8
2019-May-13 06:55N 50°16' W 001°30'8217.6
2019-May-13 02:17N 50°38' E 000°34'517.9
2019-May-13 02:00N 50°41' E 000°40'918.4
2019-May-13 01:30N 50°46' E 000°52'1019.4
2019-May-13 01:00N 50°51' E 001°05'1020.2
2019-May-13 00:30N 50°59' E 001°16'1020.2
2019-May-13 00:01N 51°05' E 001°29'1020.0
2019-May-12 23:30N 51°10' E 001°42'918.0
2019-May-12 23:00N 51°18' E 001°51'917.4
2019-May-12 22:30N 51°26' E 001°54'917.7
2019-May-12 22:01N 51°33' E 002°03'917.9
2019-May-12 21:30N 51°39' E 002°13'917.7
2019-May-12 20:59N 51°46' E 002°22'817.3
2019-May-12 20:30N 51°53' E 002°31'1117.1
2019-May-12 19:51N 52°01' E 002°43'1317.2
2019-May-12 19:06N 52°10' E 002°58'317.6
2019-May-12 18:57N 52°12' E 003°01'817.3
2019-May-12 18:30N 52°16' E 003°12'917.1
2019-May-12 18:00N 52°21' E 003°23'917.3
2019-May-12 17:30N 52°25' E 003°36'917.3
2019-May-12 17:00N 52°29' E 003°48'917.4
2019-May-12 16:30N 52°31' E 004°02'917.7
2019-May-12 16:00N 52°31' E 004°16'714.6
2019-May-12 15:30N 52°29' E 004°28'4 7.8
2019-May-12 15:01N 52°28' E 004°34'0 0.0
2019-May-12 14:29N 52°28' E 004°34'0 0.0
2019-May-12 13:59N 52°28' E 004°34'0 0.0
2019-May-12 13:29N 52°28' E 004°34'0 0.0
2019-May-12 12:59N 52°28' E 004°34'0 0.0
2019-May-12 12:29N 52°28' E 004°34'0 0.0
2019-May-12 11:59N 52°28' E 004°34'0 0.0
2019-May-12 11:29N 52°28' E 004°34'0 0.0
2019-May-12 10:59N 52°28' E 004°34'0 0.0
2019-May-12 10:29N 52°28' E 004°34'0 0.0
2019-May-12 09:59N 52°28' E 004°34'0 0.0
2019-May-12 09:29N 52°28' E 004°34'0 0.0
2019-May-12 08:59N 52°28' E 004°34'0 0.0
2019-May-12 08:29N 52°28' E 004°34'0 0.0
2019-May-12 07:59N 52°28' E 004°34'0 0.0
2019-May-12 07:29N 52°28' E 004°34'0 0.0
2019-May-12 06:59N 52°28' E 004°34'0 0.0
2019-May-12 06:29N 52°28' E 004°34'0 0.0
2019-May-12 05:59N 52°28' E 004°34'0 0.0
2019-May-12 05:29N 52°28' E 004°34'1 1.2
2019-May-12 05:01N 52°28' E 004°33'612.6
2019-May-12 04:30N 52°29' E 004°23'612.0
2019-May-12 04:00N 52°29' E 004°13'815.7
2019-May-12 03:30N 52°35' E 004°05'815.8
2019-May-12 03:00N 52°42' E 004°00'1616.0
2019-May-12 02:02N 52°58' E 004°02'118.4
2019-May-12 02:00N 52°58' E 004°02'918.4
2019-May-12 01:30N 53°04' E 004°14'918.4
2019-May-12 01:00N 53°11' E 004°24'918.6
2019-May-12 00:30N 53°20' E 004°29'1516.6
2019-May-11 23:38N 53°30' E 004°46'3417.4
2019-May-11 21:42N 53°41' E 005°39'7319.1
2019-May-11 17:53N 53°59' E 007°39'817.6
2019-May-11 17:27N 53°53' E 007°47'714.8
2019-May-11 17:00N 53°52' E 007°58'918.1
2019-May-11 16:30N 53°46' E 008°10'917.8
2019-May-11 16:00N 53°41' E 008°22'714.7
2019-May-11 15:30N 53°36' E 008°31'3 4.7
2019-May-11 14:58N 53°33' E 008°33'0 0.0
2019-May-11 14:28N 53°33' E 008°33'0 0.0
2019-May-11 13:58N 53°33' E 008°33'0 0.0
2019-May-11 13:28N 53°33' E 008°33'0 0.0
2019-May-11 12:58N 53°33' E 008°33'0 0.0
2019-May-11 12:28N 53°33' E 008°33'0 0.0
2019-May-11 11:58N 53°33' E 008°33'0 0.0
2019-May-11 11:28N 53°33' E 008°33'0 0.0
2019-May-11 10:58N 53°34' E 008°33'0 0.0
2019-May-11 10:28N 53°33' E 008°33'0 0.0
2019-May-11 09:58N 53°33' E 008°33'0 0.0
2019-May-11 09:28N 53°33' E 008°33'0 0.0
2019-May-11 08:58N 53°33' E 008°33'0 0.0
2019-May-11 08:28N 53°33' E 008°33'0 0.0
2019-May-11 07:58N 53°33' E 008°33'0 0.0
2019-May-11 07:28N 53°33' E 008°33'0 0.0
2019-May-11 06:58N 53°33' E 008°33'0 0.0
2019-May-11 06:28N 53°33' E 008°33'0 0.0
2019-May-11 05:58N 53°33' E 008°33'0 0.0
2019-May-11 05:28N 53°33' E 008°33'0 0.0
2019-May-11 04:58N 53°33' E 008°33'1 3.0
2019-May-11 04:30N 53°35' E 008°32'510.4
2019-May-11 04:01N 53°38' E 008°26'815.5
2019-May-11 03:30N 53°43' E 008°16'815.7
2019-May-11 03:01N 53°49' E 008°07'714.7
2019-May-11 02:30N 53°52' E 007°55'612.8
2019-May-11 02:00N 53°53' E 007°44'  

Dump ship's entire track history